createdAt,value
2023-02-12T00:00:49.656Z,186.77
2023-02-12T00:03:17.222Z,135.47
2023-02-12T00:05:44.752Z,41.90
2023-02-12T00:08:12.294Z,45.37
2023-02-12T00:10:42.988Z,57.07
2023-02-12T00:13:10.968Z,51.37
2023-02-12T00:15:41.628Z,56.10
2023-02-12T00:18:09.502Z,84.43
2023-02-12T00:20:37.951Z,104.30
2023-02-12T00:23:05.670Z,142.00
2023-02-12T00:25:33.429Z,78.97
2023-02-12T00:28:01.018Z,96.23
2023-02-12T00:30:28.569Z,97.20
2023-02-12T00:32:57.392Z,85.97
2023-02-12T00:35:24.891Z,92.27
2023-02-12T00:37:52.356Z,79.77
2023-02-12T00:40:20.020Z,72.17
2023-02-12T00:42:47.550Z,67.13
2023-02-12T00:45:15.222Z,100.60
2023-02-12T00:47:42.701Z,118.07
2023-02-12T00:50:12.436Z,131.40
2023-02-12T00:52:39.975Z,156.40
2023-02-12T00:55:07.816Z,142.40
2023-02-12T00:57:35.463Z,167.27
2023-02-12T01:00:02.989Z,181.03
2023-02-12T01:02:30.506Z,181.37
2023-02-12T01:04:58.594Z,168.70
2023-02-12T01:07:27.534Z,185.63
2023-02-12T01:09:55.020Z,174.63
2023-02-12T01:12:22.562Z,180.10
2023-02-12T01:14:50.073Z,141.87
2023-02-12T01:17:17.603Z,140.23
2023-02-12T01:19:45.187Z,179.40
2023-02-12T01:22:12.664Z,176.63
2023-02-12T01:24:41.799Z,178.03
2023-02-12T01:27:09.392Z,189.57
2023-02-12T01:29:36.888Z,173.47
2023-02-12T01:32:04.831Z,170.10
2023-02-12T01:34:32.413Z,189.40
2023-02-12T01:36:59.886Z,174.10
2023-02-12T01:39:27.371Z,191.17
2023-02-12T01:41:56.586Z,191.67
2023-02-12T01:44:28.880Z,93.50
2023-02-12T01:46:58.310Z,139.83
2023-02-12T01:49:29.900Z,96.27
2023-02-12T01:52:03.608Z,44.57
2023-02-12T01:54:34.257Z,65.07
2023-02-12T01:57:04.868Z,47.77
2023-02-12T01:59:33.117Z,48.70
2023-02-12T02:02:00.893Z,43.13
2023-02-12T02:04:31.642Z,29.60
2023-02-12T02:07:01.997Z,44.50
2023-02-12T02:09:31.388Z,38.50
2023-02-12T02:12:16.909Z,40.20
2023-02-12T02:14:48.399Z,58.70
2023-02-12T02:17:36.059Z,44.00
2023-02-12T02:20:39.927Z,42.53
2023-02-12T02:23:34.908Z,42.33
2023-02-12T02:26:34.824Z,44.13
2023-02-12T02:29:36.176Z,45.33
2023-02-12T02:32:09.245Z,43.73
2023-02-12T02:34:44.038Z,41.03
2023-02-12T02:37:18.826Z,46.33
2023-02-12T02:39:53.051Z,44.70
2023-02-12T02:42:27.519Z,45.57
2023-02-12T02:44:58.989Z,52.07
2023-02-12T02:47:34.426Z,46.43
2023-02-12T02:50:06.728Z,45.00
2023-02-12T02:52:38.442Z,41.60
2023-02-12T02:55:08.589Z,49.23
2023-02-12T02:57:40.167Z,45.57
2023-02-12T03:00:15.016Z,45.03
2023-02-12T03:02:48.334Z,52.20
2023-02-12T03:05:20.969Z,49.97
2023-02-12T03:07:53.247Z,47.30
2023-02-12T03:10:23.331Z,50.30
2023-02-12T03:12:55.080Z,51.97
2023-02-12T03:15:29.627Z,48.80
2023-02-12T03:18:00.741Z,51.67
2023-02-12T03:20:32.198Z,52.57
2023-02-12T03:23:05.227Z,53.33
2023-02-12T03:25:39.047Z,58.37
2023-02-12T03:28:13.393Z,53.53
2023-02-12T03:30:46.455Z,54.57
2023-02-12T03:33:23.305Z,56.50
2023-02-12T03:35:58.379Z,57.27
2023-02-12T03:38:35.356Z,50.83
2023-02-12T03:41:07.641Z,57.33
2023-02-12T03:43:46.148Z,56.53
2023-02-12T03:46:21.386Z,53.67
2023-02-12T03:49:00.308Z,51.53
2023-02-12T03:51:33.445Z,58.97
2023-02-12T03:54:02.658Z,51.83
2023-02-12T03:56:37.193Z,59.07
2023-02-12T03:59:05.049Z,56.97
2023-02-12T04:01:33.265Z,49.23
2023-02-12T04:04:04.993Z,52.67
2023-02-12T04:06:32.858Z,57.60
2023-02-12T04:09:05.308Z,51.97
2023-02-12T04:11:47.418Z,57.87
2023-02-12T04:14:25.778Z,49.67
2023-02-12T04:17:01.517Z,51.20
2023-02-12T04:19:40.504Z,51.10
2023-02-12T04:22:28.966Z,51.43
2023-02-12T04:25:04.581Z,58.10
2023-02-12T04:27:47.427Z,52.60
2023-02-12T04:30:22.526Z,54.83
2023-02-12T04:32:54.239Z,50.43
2023-02-12T04:35:28.072Z,52.87
2023-02-12T04:38:00.069Z,56.00
2023-02-12T04:40:28.168Z,48.20
2023-02-12T04:42:55.812Z,55.47
2023-02-12T04:45:26.703Z,52.27
2023-02-12T04:47:54.509Z,56.57
2023-02-12T04:50:23.508Z,51.17
2023-02-12T04:52:51.084Z,48.47
2023-02-12T04:55:19.020Z,46.93
2023-02-12T04:57:46.695Z,49.43
2023-02-12T05:00:16.437Z,49.63
2023-02-12T05:02:43.954Z,52.90
2023-02-12T05:05:11.484Z,53.00
2023-02-12T05:07:40.349Z,46.13
2023-02-12T05:10:09.694Z,51.53
2023-02-12T05:12:37.212Z,49.47
2023-02-12T05:15:04.874Z,51.50
2023-02-12T05:17:32.368Z,47.27
2023-02-12T05:19:59.964Z,44.73
2023-02-12T05:22:27.460Z,49.13
2023-02-12T05:24:56.266Z,53.33
2023-02-12T05:27:23.760Z,53.47
2023-02-12T05:29:51.221Z,59.37
2023-02-12T05:32:18.829Z,59.53
2023-02-12T05:34:46.394Z,53.63
2023-02-12T05:37:13.884Z,52.77
2023-02-12T05:39:41.483Z,51.87
2023-02-12T05:42:10.302Z,56.70
2023-02-12T05:44:38.038Z,58.10
2023-02-12T05:47:05.631Z,58.33
2023-02-12T05:49:33.110Z,53.33
2023-02-12T05:52:00.591Z,60.20
2023-02-12T05:54:28.080Z,57.60
2023-02-12T05:56:55.545Z,60.43
2023-02-12T05:59:24.677Z,64.53
2023-02-12T06:01:52.838Z,65.67
2023-02-12T06:04:23.518Z,61.13
2023-02-12T06:06:52.011Z,65.30
2023-02-12T06:09:19.606Z,67.10
2023-02-12T06:11:47.089Z,74.87
2023-02-12T06:14:16.978Z,64.77
2023-02-12T06:16:48.225Z,61.17
2023-02-12T06:19:15.859Z,63.80
2023-02-12T06:21:43.438Z,65.03
2023-02-12T06:24:11.029Z,64.20
2023-02-12T06:26:38.501Z,64.37
2023-02-12T06:29:05.987Z,63.03
2023-02-12T06:31:35.414Z,65.50
2023-02-12T06:34:07.320Z,63.70
2023-02-12T06:36:37.404Z,64.13
2023-02-12T06:39:05.388Z,64.83
2023-02-12T06:41:32.865Z,65.60
2023-02-12T06:44:00.598Z,61.67
2023-02-12T06:46:28.228Z,68.80
2023-02-12T06:48:56.550Z,64.90
2023-02-12T06:51:25.922Z,62.03
2023-02-12T06:53:54.836Z,59.63
2023-02-12T06:56:24.205Z,62.50
2023-02-12T06:58:55.057Z,58.30
2023-02-12T07:01:25.214Z,60.73
2023-02-12T07:03:54.801Z,63.27
2023-02-12T07:06:23.004Z,65.50
2023-02-12T07:08:51.828Z,59.27
2023-02-12T07:11:19.554Z,59.23
2023-02-12T07:13:47.031Z,53.47
2023-02-12T07:16:16.441Z,56.13
2023-02-12T07:18:45.249Z,59.93
2023-02-12T07:21:14.255Z,56.07
2023-02-12T07:23:42.285Z,58.43
2023-02-12T07:26:14.183Z,64.53
2023-02-12T07:28:42.823Z,60.70
2023-02-12T07:31:12.618Z,60.30
2023-02-12T07:33:40.568Z,61.23
2023-02-12T07:36:12.449Z,52.37
2023-02-12T07:38:40.461Z,48.63
2023-02-12T07:41:13.058Z,55.67
2023-02-12T07:43:41.339Z,56.97
2023-02-12T07:46:14.370Z,50.13
2023-02-12T07:48:41.864Z,52.57
2023-02-12T07:51:11.438Z,51.80
2023-02-12T07:53:40.136Z,49.27
2023-02-12T07:56:10.267Z,49.97
2023-02-12T07:58:39.784Z,44.20
2023-02-12T08:01:19.138Z,41.87
2023-02-12T08:03:48.055Z,45.20
2023-02-12T08:06:17.857Z,44.00
2023-02-12T08:08:45.577Z,42.07
2023-02-12T08:11:14.938Z,43.43
2023-02-12T08:13:43.744Z,39.60
2023-02-12T08:16:13.480Z,46.03
2023-02-12T08:18:41.238Z,41.63
2023-02-12T08:21:10.228Z,42.07
2023-02-12T08:23:38.643Z,85.60
2023-02-12T08:26:08.618Z,103.27
2023-02-12T08:28:36.881Z,46.10
2023-02-12T08:31:07.740Z,41.83
2023-02-12T08:33:35.330Z,67.53
2023-02-12T08:36:04.648Z,42.17
2023-02-12T08:38:33.009Z,47.73
2023-02-12T08:41:05.119Z,39.07
2023-02-12T08:43:32.721Z,33.83
2023-02-12T08:46:06.437Z,35.40
2023-02-12T08:48:34.389Z,37.70
2023-02-12T08:51:07.352Z,34.13
2023-02-12T08:53:35.242Z,29.87
2023-02-12T08:56:02.762Z,28.20
2023-02-12T08:58:30.250Z,26.95
2023-02-12T09:00:57.958Z,27.48
2023-02-12T09:03:26.926Z,29.75
2023-02-12T09:05:54.843Z,27.02
2023-02-12T09:08:22.560Z,23.60
2023-02-12T09:10:49.998Z,23.70
2023-02-12T09:13:17.447Z,22.65
2023-02-12T09:15:46.151Z,19.45
2023-02-12T09:18:14.744Z,22.00
2023-02-12T09:20:45.829Z,19.88
2023-02-12T09:23:15.790Z,17.65
2023-02-12T09:25:44.889Z,16.38
2023-02-12T09:28:13.935Z,18.48
2023-02-12T09:30:42.170Z,17.80
2023-02-12T09:33:12.767Z,18.25
2023-02-12T09:35:43.130Z,16.52
2023-02-12T09:38:10.851Z,16.75
2023-02-12T09:40:45.508Z,16.27
2023-02-12T09:43:19.279Z,16.15
2023-02-12T09:45:55.198Z,13.88
2023-02-12T09:48:40.535Z,15.90
2023-02-12T09:51:10.940Z,13.90
2023-02-12T09:53:43.255Z,17.77
2023-02-12T09:56:14.838Z,17.38
2023-02-12T09:58:47.519Z,15.73
2023-02-12T10:01:16.767Z,15.65
2023-02-12T10:03:46.180Z,16.30
2023-02-12T10:06:18.257Z,15.35
2023-02-12T10:09:00.231Z,20.60
2023-02-12T10:11:53.125Z,17.42
2023-02-12T10:14:34.213Z,19.73
2023-02-12T10:17:09.097Z,50.10
2023-02-12T10:19:57.498Z,84.90
2023-02-12T10:22:33.945Z,96.88
2023-02-12T10:25:16.884Z,98.85
2023-02-12T10:27:49.965Z,85.22
2023-02-12T10:30:22.375Z,14.70
2023-02-12T10:32:53.948Z,25.55
2023-02-12T10:35:23.593Z,25.30
2023-02-12T10:37:57.425Z,29.67
2023-02-12T10:40:29.901Z,16.08
2023-02-12T10:42:58.737Z,10.23
2023-02-12T10:45:30.739Z,15.25
2023-02-12T10:48:08.568Z,12.40
2023-02-12T10:50:45.804Z,14.63
2023-02-12T10:53:21.204Z,13.13
2023-02-12T10:55:49.129Z,9.75
2023-02-12T10:58:22.635Z,7.28
2023-02-12T11:00:58.469Z,10.40
2023-02-12T11:03:34.070Z,7.68
2023-02-12T11:06:14.359Z,6.93
2023-02-12T11:08:43.626Z,7.13
2023-02-12T11:11:13.690Z,7.50
2023-02-12T11:13:45.662Z,7.55
2023-02-12T11:16:13.928Z,7.32
2023-02-12T11:18:42.969Z,7.60
2023-02-12T11:21:12.330Z,7.85
2023-02-12T11:23:41.827Z,8.27
2023-02-12T11:26:25.557Z,8.30
2023-02-12T11:28:55.850Z,7.85
2023-02-12T11:31:27.506Z,6.50
2023-02-12T11:34:09.048Z,7.53
2023-02-12T11:36:38.615Z,8.02
2023-02-12T11:39:08.665Z,6.35
2023-02-12T11:41:40.260Z,6.72
2023-02-12T11:44:12.967Z,7.43
2023-02-12T11:46:46.878Z,9.10
2023-02-12T11:49:20.815Z,7.05
2023-02-12T11:51:50.015Z,5.28
2023-02-12T11:54:21.506Z,5.10
2023-02-12T11:56:50.784Z,3.85
2023-02-12T11:59:34.583Z,4.05
2023-02-12T12:02:07.259Z,3.30
2023-02-12T12:04:36.632Z,3.22
2023-02-12T12:07:12.422Z,4.18
2023-02-12T12:09:43.804Z,2.80
2023-02-12T12:12:18.465Z,3.05
2023-02-12T12:15:07.963Z,2.88
2023-02-12T12:18:01.012Z,2.80
2023-02-12T12:20:31.718Z,2.35
2023-02-12T12:23:05.488Z,3.20
2023-02-12T12:25:38.106Z,2.97
2023-02-12T12:28:29.192Z,2.90
2023-02-12T12:31:11.606Z,2.50
2023-02-12T12:33:44.090Z,3.30
2023-02-12T12:36:59.597Z,3.67
2023-02-12T12:39:33.964Z,2.67
2023-02-12T12:42:27.242Z,2.38
2023-02-12T12:45:16.120Z,2.83
2023-02-12T12:47:58.477Z,2.58
2023-02-12T12:50:44.088Z,3.67
2023-02-12T12:53:24.609Z,3.47
2023-02-12T12:56:13.970Z,3.13
2023-02-12T12:58:55.166Z,3.10
2023-02-12T13:01:47.309Z,3.42
2023-02-12T13:04:38.661Z,2.50
2023-02-12T13:07:22.478Z,2.65
2023-02-12T13:10:04.065Z,4.07
2023-02-12T13:12:46.920Z,4.13
2023-02-12T13:15:26.389Z,4.47
2023-02-12T13:18:02.137Z,4.80
2023-02-12T13:20:39.047Z,4.75
2023-02-12T13:23:15.796Z,5.72
2023-02-12T13:25:55.119Z,5.53
2023-02-12T13:28:30.425Z,5.05
2023-02-12T13:30:59.470Z,5.10
2023-02-12T13:33:33.920Z,5.30
2023-02-12T13:36:06.552Z,7.05
2023-02-12T13:38:40.248Z,4.75
2023-02-12T13:41:11.217Z,5.10
2023-02-12T13:43:55.295Z,4.95
2023-02-12T13:46:31.166Z,5.13
2023-02-12T13:49:11.095Z,5.57
2023-02-12T13:51:44.933Z,4.70
2023-02-12T13:54:30.599Z,4.28
2023-02-12T13:57:01.119Z,5.53
2023-02-12T13:59:44.042Z,5.38
2023-02-12T14:02:28.699Z,5.28
2023-02-12T14:04:59.979Z,5.63
2023-02-12T14:07:43.710Z,5.30
2023-02-12T14:10:22.883Z,6.60
2023-02-12T14:12:51.164Z,5.72
2023-02-12T14:15:30.837Z,7.55
2023-02-12T14:18:07.577Z,6.53
2023-02-12T14:20:37.218Z,6.25
2023-02-12T14:23:24.597Z,6.43
2023-02-12T14:25:59.920Z,6.22
2023-02-12T14:28:34.506Z,6.50
2023-02-12T14:31:34.138Z,7.70
2023-02-12T14:34:49.945Z,6.55
2023-02-12T14:37:36.601Z,8.55
2023-02-12T14:40:42.514Z,7.43
2023-02-12T14:43:28.866Z,8.30
2023-02-12T14:45:57.941Z,7.57
2023-02-12T14:48:49.770Z,8.82
2023-02-12T14:51:21.299Z,8.60
2023-02-12T14:53:52.300Z,8.75
2023-02-12T14:56:22.413Z,8.48
2023-02-12T14:58:51.197Z,8.10
2023-02-12T15:01:20.154Z,7.35
2023-02-12T15:03:51.982Z,9.15
2023-02-12T15:06:22.853Z,7.75
2023-02-12T15:08:57.121Z,8.00
2023-02-12T15:11:37.631Z,8.82
2023-02-12T15:14:08.638Z,7.68
2023-02-12T15:16:44.742Z,9.20
2023-02-12T15:19:23.364Z,8.38
2023-02-12T15:21:54.328Z,7.93
2023-02-12T15:24:24.685Z,9.63
2023-02-12T15:26:54.885Z,8.23
2023-02-12T15:29:26.382Z,8.73
2023-02-12T15:31:56.040Z,8.30
2023-02-12T15:34:27.405Z,8.30
2023-02-12T15:36:57.583Z,6.28
2023-02-12T15:39:27.884Z,7.32
2023-02-12T15:41:55.547Z,8.10
2023-02-12T15:44:29.417Z,7.97
2023-02-12T15:47:05.009Z,8.40
2023-02-12T15:49:35.947Z,8.37
2023-02-12T15:52:08.173Z,7.75
2023-02-12T15:54:37.580Z,6.55
2023-02-12T15:57:11.620Z,8.57
2023-02-12T15:59:40.034Z,7.70
2023-02-12T16:02:19.504Z,7.97
2023-02-12T16:04:47.253Z,8.37
2023-02-12T16:07:16.325Z,8.90
2023-02-12T16:09:46.568Z,8.37
2023-02-12T16:12:18.218Z,7.77
2023-02-12T16:14:49.512Z,8.87
2023-02-12T16:17:23.340Z,7.33
2023-02-12T16:19:58.865Z,6.87
2023-02-12T16:22:31.173Z,10.37
2023-02-12T16:25:01.539Z,10.77
2023-02-12T16:27:31.873Z,12.33
2023-02-12T16:30:01.793Z,20.77
2023-02-12T16:32:33.688Z,17.47
2023-02-12T16:35:03.921Z,17.60
2023-02-12T16:37:48.152Z,18.27
2023-02-12T16:40:35.761Z,17.57
2023-02-12T16:43:24.265Z,23.60
2023-02-12T16:45:52.377Z,20.27
2023-02-12T16:48:25.009Z,20.90
2023-02-12T16:50:55.532Z,9.43
2023-02-12T16:53:33.159Z,8.67
2023-02-12T16:56:03.777Z,18.00
2023-02-12T16:58:31.923Z,12.33
2023-02-12T17:01:03.233Z,21.97
2023-02-12T17:03:30.901Z,14.07
2023-02-12T17:05:58.811Z,40.07
2023-02-12T17:08:26.489Z,29.83
2023-02-12T17:10:54.315Z,17.20
2023-02-12T17:13:23.114Z,49.50
2023-02-12T17:15:54.116Z,70.13
2023-02-12T17:18:22.733Z,93.40
2023-02-12T17:20:55.569Z,85.70
2023-02-12T17:23:23.833Z,59.87
2023-02-12T17:25:51.351Z,65.57
2023-02-12T17:28:18.922Z,41.90
2023-02-12T17:30:47.878Z,27.30
2023-02-12T17:33:15.527Z,12.70
2023-02-12T17:35:43.067Z,9.30
2023-02-12T17:38:10.508Z,8.27
2023-02-12T17:40:39.619Z,9.00
2023-02-12T17:43:07.653Z,7.53
2023-02-12T17:45:35.305Z,25.07
2023-02-12T17:48:04.491Z,34.03
2023-02-12T17:50:31.936Z,10.77
2023-02-12T17:52:59.387Z,14.83
2023-02-12T17:55:26.856Z,15.90
2023-02-12T17:57:55.309Z,18.50
2023-02-12T18:00:24.019Z,49.30
2023-02-12T18:02:52.461Z,53.93
2023-02-12T18:05:21.273Z,21.33
2023-02-12T18:07:48.949Z,14.73
2023-02-12T18:10:16.736Z,11.53
2023-02-12T18:12:44.184Z,8.30
2023-02-12T18:15:12.023Z,11.43
2023-02-12T18:17:42.498Z,10.63
2023-02-12T18:20:11.303Z,7.80
2023-02-12T18:22:40.135Z,10.33
2023-02-12T18:25:08.710Z,15.23
2023-02-12T18:27:36.208Z,12.50
2023-02-12T18:30:03.784Z,42.80
2023-02-12T18:32:31.244Z,35.40
2023-02-12T18:34:58.671Z,20.80
2023-02-12T18:37:26.191Z,18.00
2023-02-12T18:39:55.121Z,23.87
2023-02-12T18:42:22.790Z,20.27
2023-02-12T18:44:51.726Z,18.63
2023-02-12T18:47:19.706Z,14.77
2023-02-12T18:49:47.266Z,17.50
2023-02-12T18:52:14.740Z,18.07
2023-02-12T18:54:44.408Z,23.77
2023-02-12T18:57:13.226Z,17.60
2023-02-12T18:59:40.748Z,21.20
2023-02-12T19:02:08.909Z,21.97
2023-02-12T19:04:36.523Z,22.70
2023-02-12T19:07:04.117Z,29.43
2023-02-12T19:09:31.591Z,25.93
2023-02-12T19:12:00.647Z,27.00
2023-02-12T19:14:29.631Z,106.13
2023-02-12T19:16:57.167Z,56.40
2023-02-12T19:19:25.333Z,47.87
2023-02-12T19:21:52.868Z,40.13
2023-02-12T19:24:20.565Z,47.47
2023-02-12T19:26:52.016Z,92.03
2023-02-12T19:29:19.513Z,131.87
2023-02-12T19:31:48.526Z,121.33
2023-02-12T19:34:19.558Z,127.33
2023-02-12T19:36:48.341Z,92.30
2023-02-12T19:39:18.685Z,80.30
2023-02-12T19:41:47.021Z,87.83
2023-02-12T19:44:18.830Z,57.90
2023-02-12T19:46:48.565Z,26.10
2023-02-12T19:49:18.892Z,28.43
2023-02-12T19:51:46.725Z,37.77
2023-02-12T19:54:16.165Z,44.10
2023-02-12T19:56:44.441Z,35.43
2023-02-12T19:59:14.198Z,26.80
2023-02-12T20:01:41.808Z,33.30
2023-02-12T20:04:12.169Z,24.33
2023-02-12T20:06:40.103Z,20.20
2023-02-12T20:09:08.393Z,19.60
2023-02-12T20:11:38.408Z,25.20
2023-02-12T20:14:07.590Z,24.60
2023-02-12T20:16:38.176Z,22.17
2023-02-12T20:19:08.521Z,22.83
2023-02-12T20:21:37.556Z,19.47
2023-02-12T20:24:06.060Z,21.20
2023-02-12T20:26:34.448Z,24.90
2023-02-12T20:29:08.374Z,22.40
2023-02-12T20:31:37.715Z,23.70
2023-02-12T20:34:08.078Z,19.20
2023-02-12T20:36:39.508Z,19.33
2023-02-12T20:39:09.275Z,21.83
2023-02-12T20:41:37.319Z,25.33
2023-02-12T20:44:05.873Z,18.30
2023-02-12T20:46:36.004Z,18.33
2023-02-12T20:49:04.015Z,19.40
2023-02-12T20:51:31.514Z,19.57
2023-02-12T20:54:02.693Z,14.10
2023-02-12T20:56:32.601Z,17.50
2023-02-12T20:59:00.952Z,17.50
2023-02-12T21:01:31.532Z,18.93
2023-02-12T21:04:03.273Z,16.70
2023-02-12T21:06:30.840Z,15.73
2023-02-12T21:08:58.554Z,15.57
2023-02-12T21:11:28.765Z,15.27
2023-02-12T21:14:02.546Z,19.47
2023-02-12T21:16:32.805Z,17.17
2023-02-12T21:19:00.885Z,24.37
2023-02-12T21:21:30.015Z,16.30
2023-02-12T21:23:59.158Z,19.80
2023-02-12T21:26:30.064Z,20.63
2023-02-12T21:29:00.119Z,25.87
2023-02-12T21:31:29.627Z,20.27
2023-02-12T21:33:59.040Z,20.27
2023-02-12T21:36:28.334Z,22.07
2023-02-12T21:38:56.671Z,30.07
2023-02-12T21:41:26.135Z,31.93
2023-02-12T21:43:58.295Z,24.70
2023-02-12T21:46:26.425Z,31.27
2023-02-12T21:48:54.289Z,30.20
2023-02-12T21:51:23.309Z,25.50
2023-02-12T21:53:52.476Z,25.50
2023-02-12T21:56:21.083Z,30.07
2023-02-12T21:58:49.611Z,26.00
2023-02-12T22:01:20.264Z,35.93
2023-02-12T22:03:47.950Z,40.63
2023-02-12T22:06:17.652Z,47.07
2023-02-12T22:08:45.242Z,48.63
2023-02-12T22:11:13.583Z,45.03
2023-02-12T22:13:41.252Z,47.67
2023-02-12T22:16:10.448Z,34.63
2023-02-12T22:18:40.233Z,40.27
2023-02-12T22:21:12.764Z,46.97
2023-02-12T22:23:42.003Z,63.17
2023-02-12T22:26:12.335Z,56.53
2023-02-12T22:28:41.273Z,53.67
2023-02-12T22:31:09.773Z,47.07
2023-02-12T22:33:38.598Z,65.10
2023-02-12T22:36:10.108Z,73.33
2023-02-12T22:38:38.634Z,64.77
2023-02-12T22:41:07.313Z,54.00
2023-02-12T22:43:36.606Z,54.10
2023-02-12T22:46:04.515Z,62.70
2023-02-12T22:48:32.054Z,88.00
2023-02-12T22:51:01.009Z,366.57
2023-02-12T22:53:28.498Z,319.00
2023-02-12T22:55:56.007Z,442.30
2023-02-12T22:58:23.494Z,447.63
2023-02-12T23:00:51.124Z,269.87
2023-02-12T23:03:18.633Z,409.17
2023-02-12T23:05:46.125Z,356.03
2023-02-12T23:08:14.950Z,326.10
2023-02-12T23:10:42.515Z,307.73
2023-02-12T23:13:10.592Z,398.53
2023-02-12T23:15:41.025Z,318.63
2023-02-12T23:18:08.473Z,311.83
2023-02-12T23:20:35.951Z,323.27
2023-02-12T23:23:03.451Z,299.93
2023-02-12T23:25:32.277Z,309.43
2023-02-12T23:27:59.848Z,304.00
2023-02-12T23:30:27.893Z,219.83
2023-02-12T23:32:55.405Z,238.50
2023-02-12T23:35:22.886Z,163.10
2023-02-12T23:37:50.367Z,188.67
2023-02-12T23:40:18.019Z,191.00
2023-02-12T23:42:47.020Z,196.27
2023-02-12T23:45:14.737Z,197.37
2023-02-12T23:47:42.262Z,163.97
2023-02-12T23:50:10.513Z,197.57
2023-02-12T23:52:38.013Z,250.20
2023-02-12T23:55:06.071Z,177.17
2023-02-12T23:57:33.609Z,188.70
